Time;durP1;ratioP1;P1;durP2;ratioP2;P2;SDS_P1;SDS_P2;PMS_P1;PMS_P2;Temp;Humidity;BMP_temperature;BMP_pressure;BME280_temperature;BME280_humidity;BME280_pressure;Samples;Min_cycle;Max_cycle;Signal;HPM_P1;HPM_P2
2021/07/03 00:01:12;;;;;;;;;;;16.60;99.90;;;;;;5087326;28;19955;-67
2021/07/03 00:03:39;;;;;;;;;;;16.60;99.90;;;;;;5085165;28;19925;-67
2021/07/03 00:06:06;;;;;;;;;;;16.50;99.90;;;;;;5088898;28;20468;-67
2021/07/03 00:08:32;;;;;;;;;;;16.50;99.90;;;;;;5082051;28;19978;-67
2021/07/03 00:11:01;;;;;;;;;;;16.50;99.90;;;;;;5126069;27;19924;-67
2021/07/03 00:13:28;;;;;;;;;;;16.50;99.90;;;;;;5083887;28;19935;-67
2021/07/03 00:15:54;;;;;;;;;;;16.50;99.90;;;;;;5087364;28;20367;-67
2021/07/03 00:18:21;;;;;;;;;;;16.50;99.90;;;;;;5082991;28;19977;-67
2021/07/03 00:20:48;;;;;;;;;;;16.50;99.90;;;;;;5084382;28;20030;-67
2021/07/03 00:23:14;;;;;;;;;;;16.50;99.90;;;;;;5088923;28;20329;-67
2021/07/03 00:25:41;;;;;;;;;;;16.50;99.90;;;;;;5088078;28;19967;-67
2021/07/03 00:28:23;;;;;;;;;;;16.40;99.90;;;;;;5085080;28;19956;-67
2021/07/03 00:30:50;;;;;;;;;;;16.40;99.90;;;;;;5086909;28;19963;-67
2021/07/03 00:33:16;;;;;;;;;;;16.40;99.90;;;;;;5085775;28;20375;-67
2021/07/03 00:35:44;;;;;;;;;;;16.40;99.90;;;;;;5089978;28;20309;-67
2021/07/03 00:38:11;;;;;;;;;;;16.40;99.90;;;;;;5082191;28;19954;-67
2021/07/03 00:40:50;;;;;;;;;;;16.30;99.90;;;;;;5086498;28;19975;-67
2021/07/03 00:43:16;;;;;;;;;;;16.30;99.90;;;;;;5084887;28;19988;-67
2021/07/03 00:45:43;;;;;;;;;;;16.30;99.90;;;;;;5084372;28;19981;-67
2021/07/03 00:48:10;;;;;;;;;;;16.20;99.90;;;;;;5085061;28;19932;-67
2021/07/03 00:50:37;;;;;;;;;;;16.20;99.90;;;;;;5084500;28;19960;-67
2021/07/03 00:53:03;;;;;;;;;;;16.20;99.90;;;;;;5083759;28;19924;-67
2021/07/03 00:55:31;;;;;;;;;;;16.20;99.90;;;;;;5085732;28;20372;-67
2021/07/03 00:57:57;;;;;;;;;;;16.20;99.90;;;;;;5079742;28;19959;-67
2021/07/03 01:00:24;;;;;;;;;;;16.10;99.90;;;;;;5083492;28;19961;-67
2021/07/03 01:02:51;;;;;;;;;;;16.10;99.90;;;;;;5085035;28;19970;-67
2021/07/03 01:05:17;;;;;;;;;;;16.10;99.90;;;;;;5087182;28;19963;-67
2021/07/03 01:07:44;;;;;;;;;;;16.10;99.90;;;;;;5086962;28;19955;-67
2021/07/03 01:10:25;;;;;;;;;;;16.10;99.90;;;;;;5082068;28;19982;-67
2021/07/03 01:12:52;;;;;;;;;;;16.10;99.90;;;;;;5089102;28;20326;-67
2021/07/03 01:15:20;;;;;;;;;;;16.00;99.90;;;;;;5089526;28;19955;-67
2021/07/03 01:17:47;;;;;;;;;;;16.00;99.90;;;;;;5088606;28;19935;-67
2021/07/03 01:20:14;;;;;;;;;;;16.00;99.90;;;;;;5087138;28;19979;-67
2021/07/03 01:22:42;;;;;;;;;;;16.00;99.90;;;;;;5092202;28;19924;-67
2021/07/03 01:25:10;;;;;;;;;;;15.90;99.90;;;;;;5089288;28;20417;-67
2021/07/03 01:27:37;;;;;;;;;;;15.90;99.90;;;;;;5090955;28;19978;-67
2021/07/03 01:30:05;;;;;;;;;;;15.90;99.90;;;;;;5091794;28;19964;-67
2021/07/03 01:32:31;;;;;;;;;;;15.90;99.90;;;;;;5083311;28;20369;-67
2021/07/03 01:34:58;;;;;;;;;;;15.90;99.90;;;;;;5090924;28;20014;-67
2021/07/03 01:37:25;;;;;;;;;;;15.90;99.90;;;;;;5078593;28;19964;-67
2021/07/03 01:39:51;;;;;;;;;;;15.80;99.90;;;;;;5078949;28;19970;-67
2021/07/03 01:42:18;;;;;;;;;;;15.80;99.90;;;;;;5086829;28;19924;-67
2021/07/03 01:44:46;;;;;;;;;;;15.80;99.90;;;;;;5088967;28;19924;-67
2021/07/03 01:47:13;;;;;;;;;;;15.70;99.90;;;;;;5087752;28;20364;-67
2021/07/03 01:49:41;;;;;;;;;;;15.70;99.90;;;;;;5089185;28;20019;-67
2021/07/03 01:52:08;;;;;;;;;;;15.70;99.90;;;;;;5089709;28;20343;-67
2021/07/03 01:54:35;;;;;;;;;;;15.70;99.90;;;;;;5087149;28;19982;-67
2021/07/03 01:57:02;;;;;;;;;;;15.60;99.90;;;;;;5086223;28;19975;-67
2021/07/03 01:59:29;;;;;;;;;;;15.60;99.90;;;;;;5088785;28;19991;-67
2021/07/03 02:01:57;;;;;;;;;;;15.60;99.90;;;;;;5088955;28;20268;-67
2021/07/03 02:04:23;;;;;;;;;;;15.50;99.90;;;;;;5090986;28;19955;-67
2021/07/03 02:06:50;;;;;;;;;;;15.50;99.90;;;;;;5090915;28;19933;-67
2021/07/03 02:09:17;;;;;;;;;;;15.50;99.90;;;;;;5091611;28;20027;-67
2021/07/03 02:11:44;;;;;;;;;;;15.50;99.90;;;;;;5085996;28;20010;-67
2021/07/03 02:14:11;;;;;;;;;;;15.50;99.90;;;;;;5087854;28;20006;-67
2021/07/03 02:16:38;;;;;;;;;;;15.50;99.90;;;;;;5088943;28;20410;-67
2021/07/03 02:19:05;;;;;;;;;;;15.50;99.90;;;;;;5083538;28;20006;-67
2021/07/03 02:21:32;;;;;;;;;;;15.50;99.90;;;;;;5085928;28;19967;-67
2021/07/03 02:23:59;;;;;;;;;;;15.50;99.90;;;;;;5088538;28;20330;-67
2021/07/03 02:26:25;;;;;;;;;;;15.50;99.90;;;;;;5092100;28;20003;-67
2021/07/03 02:28:53;;;;;;;;;;;15.50;99.90;;;;;;5086087;28;20056;-67
2021/07/03 02:31:29;;;;;;;;;;;15.50;99.90;;;;;;5089283;28;19977;-67
2021/07/03 02:33:56;;;;;;;;;;;15.50;99.90;;;;;;5081267;28;19966;-67
2021/07/03 02:36:23;;;;;;;;;;;15.50;99.90;;;;;;5091112;28;19964;-67
2021/07/03 02:38:49;;;;;;;;;;;15.50;99.90;;;;;;5075461;28;20344;-67
2021/07/03 02:41:16;;;;;;;;;;;15.60;99.90;;;;;;5088033;28;19985;-67
2021/07/03 02:43:43;;;;;;;;;;;15.60;99.90;;;;;;5083551;28;19950;-67
2021/07/03 02:46:09;;;;;;;;;;;15.60;99.90;;;;;;5086783;28;19990;-67
2021/07/03 02:48:36;;;;;;;;;;;15.60;99.90;;;;;;5087895;28;19986;-67
2021/07/03 02:51:03;;;;;;;;;;;15.70;99.90;;;;;;5088831;28;19954;-67
2021/07/03 02:53:30;;;;;;;;;;;15.70;99.90;;;;;;5083215;28;19932;-67
2021/07/03 02:55:56;;;;;;;;;;;15.70;99.90;;;;;;5089112;28;19979;-67
2021/07/03 02:58:23;;;;;;;;;;;15.70;99.90;;;;;;5075573;28;20437;-67
2021/07/03 03:00:49;;;;;;;;;;;15.70;99.90;;;;;;5089305;28;19986;-67
2021/07/03 03:03:16;;;;;;;;;;;15.70;99.90;;;;;;5085325;28;19924;-67
2021/07/03 03:05:43;;;;;;;;;;;15.70;99.90;;;;;;5088875;28;19982;-67
2021/07/03 03:08:10;;;;;;;;;;;15.70;99.90;;;;;;5083338;28;19985;-67
2021/07/03 03:10:36;;;;;;;;;;;15.70;99.90;;;;;;5079382;28;19959;-67
2021/07/03 03:13:03;;;;;;;;;;;15.70;99.90;;;;;;5086858;28;20396;-67
2021/07/03 03:15:30;;;;;;;;;;;15.70;99.90;;;;;;5088395;28;19951;-67
2021/07/03 03:17:56;;;;;;;;;;;15.70;99.90;;;;;;5081352;28;20363;-67
2021/07/03 03:20:23;;;;;;;;;;;15.70;99.90;;;;;;5091790;28;20051;-67
2021/07/03 03:22:50;;;;;;;;;;;15.70;99.90;;;;;;5091639;28;20294;-67
2021/07/03 03:25:17;;;;;;;;;;;15.70;99.90;;;;;;5090285;28;20002;-67
2021/07/03 03:27:43;;;;;;;;;;;15.70;99.90;;;;;;5086204;28;19978;-67
2021/07/03 03:30:10;;;;;;;;;;;15.70;99.90;;;;;;5082938;28;19999;-67
2021/07/03 03:32:38;;;;;;;;;;;15.70;99.90;;;;;;5085736;28;20094;-67
2021/07/03 03:35:05;;;;;;;;;;;15.80;99.90;;;;;;5082890;28;19924;-67
2021/07/03 03:37:32;;;;;;;;;;;15.80;99.90;;;;;;5085345;28;20344;-67
2021/07/03 03:39:58;;;;;;;;;;;15.80;99.90;;;;;;5084347;28;20043;-67
2021/07/03 03:42:25;;;;;;;;;;;15.80;99.90;;;;;;5085255;28;19962;-67
2021/07/03 03:44:52;;;;;;;;;;;15.80;99.90;;;;;;5090087;28;19989;-67
2021/07/03 03:47:18;;;;;;;;;;;15.80;99.90;;;;;;5086551;28;19932;-67
2021/07/03 03:49:45;;;;;;;;;;;15.80;99.90;;;;;;5087899;28;19964;-67
2021/07/03 03:52:12;;;;;;;;;;;15.80;99.90;;;;;;5086568;28;20069;-67
2021/07/03 03:54:38;;;;;;;;;;;15.80;99.90;;;;;;5091253;28;19993;-67
2021/07/03 04:00:11;;;;;;;;;;;15.70;99.90;;;;;;5071875;28;20031;-67
2021/07/03 04:02:37;;;;;;;;;;;15.80;99.90;;;;;;5077840;28;19928;-67
2021/07/03 04:05:05;;;;;;;;;;;15.80;99.90;;;;;;5082150;28;19924;-67
2021/07/03 04:07:39;;;;;;;;;;;15.80;99.90;;;;;;5082825;28;19954;-67
2021/07/03 04:10:07;;;;;;;;;;;15.80;99.90;;;;;;5083332;28;19994;-67
2021/07/03 04:12:34;;;;;;;;;;;15.90;99.90;;;;;;5094799;28;20069;-67
2021/07/03 04:15:01;;;;;;;;;;;15.90;99.90;;;;;;5084898;28;20011;-67
2021/07/03 04:17:28;;;;;;;;;;;15.90;99.90;;;;;;5084630;28;19978;-67
2021/07/03 04:19:55;;;;;;;;;;;15.90;99.90;;;;;;5088734;28;20049;-67
2021/07/03 04:22:21;;;;;;;;;;;15.90;99.90;;;;;;5119947;27;20078;-67
2021/07/03 04:24:48;;;;;;;;;;;15.90;99.90;;;;;;5085141;28;20054;-67
2021/07/03 04:27:15;;;;;;;;;;;16.00;99.90;;;;;;5085732;28;19983;-67
2021/07/03 04:29:41;;;;;;;;;;;16.00;99.90;;;;;;5087561;28;19956;-67
2021/07/03 04:32:08;;;;;;;;;;;16.00;99.90;;;;;;5084205;28;19931;-67
2021/07/03 04:34:35;;;;;;;;;;;15.90;99.90;;;;;;5090839;28;19924;-67
2021/07/03 04:37:02;;;;;;;;;;;16.00;99.90;;;;;;5087428;28;19973;-67
2021/07/03 04:39:28;;;;;;;;;;;16.00;99.90;;;;;;5077864;28;19981;-67
2021/07/03 04:41:55;;;;;;;;;;;16.10;99.90;;;;;;5081129;28;19963;-67
2021/07/03 04:44:22;;;;;;;;;;;16.10;99.90;;;;;;5085317;28;19971;-67
2021/07/03 04:46:48;;;;;;;;;;;16.10;99.90;;;;;;5081565;28;19950;-67
2021/07/03 04:49:15;;;;;;;;;;;16.20;99.90;;;;;;5082989;28;20332;-67
2021/07/03 04:51:42;;;;;;;;;;;16.20;99.90;;;;;;5086630;28;20269;-67
2021/07/03 04:54:09;;;;;;;;;;;16.20;99.90;;;;;;5087239;28;19946;-67
2021/07/03 04:56:35;;;;;;;;;;;16.20;99.90;;;;;;5086199;28;19979;-67
2021/07/03 04:59:02;;;;;;;;;;;16.20;99.90;;;;;;5085751;28;20352;-67
2021/07/03 05:01:29;;;;;;;;;;;16.20;99.90;;;;;;5084029;28;20378;-67
2021/07/03 05:03:56;;;;;;;;;;;16.20;99.90;;;;;;5083364;28;19932;-67
2021/07/03 05:06:22;;;;;;;;;;;16.30;99.90;;;;;;5083927;28;19955;-67
2021/07/03 05:08:49;;;;;;;;;;;16.40;99.90;;;;;;5079717;28;19955;-67
2021/07/03 05:11:16;;;;;;;;;;;16.40;99.90;;;;;;5085325;28;20013;-67
2021/07/03 05:13:43;;;;;;;;;;;16.50;99.90;;;;;;5085828;28;19962;-67
2021/07/03 05:16:09;;;;;;;;;;;16.60;99.90;;;;;;5088274;28;20020;-67
2021/07/03 05:18:36;;;;;;;;;;;16.70;99.90;;;;;;5078413;28;20050;-67
2021/07/03 05:21:03;;;;;;;;;;;16.80;99.90;;;;;;5089387;28;19924;-67
2021/07/03 05:23:29;;;;;;;;;;;16.90;99.90;;;;;;5077784;28;19931;-67
2021/07/03 05:25:57;;;;;;;;;;;16.90;99.90;;;;;;5083955;28;19995;-67
2021/07/03 05:28:24;;;;;;;;;;;17.00;99.90;;;;;;5082197;28;19928;-67
2021/07/03 05:30:52;;;;;;;;;;;17.10;99.90;;;;;;5098334;28;19968;-67
2021/07/03 05:33:19;;;;;;;;;;;17.10;99.90;;;;;;5082065;28;20341;-67
2021/07/03 05:35:46;;;;;;;;;;;17.20;99.90;;;;;;5114966;27;19924;-67
2021/07/03 05:38:12;;;;;;;;;;;17.30;99.90;;;;;;5079267;28;19932;-67
2021/07/03 05:40:39;;;;;;;;;;;17.40;99.90;;;;;;5084983;28;19928;-67
2021/07/03 05:43:06;;;;;;;;;;;17.40;99.90;;;;;;5086749;28;19924;-67
2021/07/03 05:45:35;;;;;;;;;;;17.50;99.90;;;;;;5087551;28;19972;-67
2021/07/03 05:48:02;;;;;;;;;;;17.50;99.90;;;;;;5078476;28;19928;-67
2021/07/03 05:50:29;;;;;;;;;;;17.60;99.90;;;;;;5066549;28;20017;-67
2021/07/03 05:52:56;;;;;;;;;;;17.70;99.90;;;;;;5066115;28;19972;-67
2021/07/03 05:55:22;;;;;;;;;;;17.80;99.90;;;;;;5068848;28;20652;-67
2021/07/03 05:57:49;;;;;;;;;;;17.80;99.90;;;;;;5069286;28;19967;-67
2021/07/03 06:00:16;;;;;;;;;;;17.80;99.90;;;;;;5070251;28;19967;-67
2021/07/03 06:02:43;;;;;;;;;;;17.90;99.90;;;;;;5068064;28;19978;-67
2021/07/03 06:05:10;;;;;;;;;;;17.80;99.90;;;;;;5070382;28;19935;-67
2021/07/03 06:07:40;;;;;;;;;;;17.80;99.90;;;;;;5080994;28;19955;-67
2021/07/03 06:10:07;;;;;;;;;;;17.80;99.90;;;;;;5070089;28;20009;-67
2021/07/03 06:12:34;;;;;;;;;;;17.80;99.90;;;;;;5068111;28;19971;-67
2021/07/03 06:15:02;;;;;;;;;;;17.80;99.90;;;;;;5070205;28;19924;-67
2021/07/03 06:17:28;;;;;;;;;;;17.90;99.90;;;;;;5068983;28;19956;-67
2021/07/03 06:19:55;;;;;;;;;;;17.90;99.90;;;;;;5071206;28;20279;-67
2021/07/03 06:22:22;;;;;;;;;;;17.90;99.90;;;;;;5068158;28;19924;-67
2021/07/03 06:24:48;;;;;;;;;;;17.90;99.90;;;;;;5069422;28;19960;-67
2021/07/03 06:27:16;;;;;;;;;;;17.90;99.90;;;;;;5069535;28;19974;-67
2021/07/03 06:29:42;;;;;;;;;;;18.00;99.90;;;;;;5069828;28;19982;-67
2021/07/03 06:32:09;;;;;;;;;;;18.00;99.90;;;;;;5066431;28;20520;-67
2021/07/03 06:34:36;;;;;;;;;;;18.00;99.90;;;;;;5069335;28;19925;-67
2021/07/03 06:37:03;;;;;;;;;;;18.00;99.90;;;;;;5067514;28;19940;-67
2021/07/03 06:39:41;;;;;;;;;;;18.10;99.90;;;;;;5068243;28;20437;-67
2021/07/03 06:42:07;;;;;;;;;;;18.20;99.90;;;;;;5068375;28;19968;-67
2021/07/03 06:44:34;;;;;;;;;;;18.30;99.90;;;;;;5062145;28;19968;-67
2021/07/03 06:47:01;;;;;;;;;;;18.40;99.90;;;;;;5099871;27;19990;-67
2021/07/03 06:49:27;;;;;;;;;;;18.50;99.90;;;;;;5069586;28;20440;-67
2021/07/03 06:51:54;;;;;;;;;;;18.70;99.90;;;;;;5070652;28;19967;-67
2021/07/03 06:54:21;;;;;;;;;;;18.80;99.90;;;;;;5098060;27;20399;-67
2021/07/03 06:56:48;;;;;;;;;;;18.90;99.90;;;;;;5099794;27;20022;-67
2021/07/03 06:59:15;;;;;;;;;;;19.10;99.90;;;;;;5068214;28;20017;-67
2021/07/03 07:01:41;;;;;;;;;;;19.20;99.90;;;;;;5067300;28;20011;-67
2021/07/03 07:04:08;;;;;;;;;;;19.30;99.90;;;;;;5064602;28;19980;-67
2021/07/03 07:06:34;;;;;;;;;;;19.40;99.90;;;;;;5069253;28;20390;-67
2021/07/03 07:09:01;;;;;;;;;;;19.40;99.90;;;;;;5066814;28;19964;-67
2021/07/03 07:11:28;;;;;;;;;;;19.50;99.90;;;;;;5069064;28;20045;-67
2021/07/03 07:13:55;;;;;;;;;;;19.50;99.90;;;;;;5067862;28;19924;-67
2021/07/03 07:16:21;;;;;;;;;;;19.60;99.90;;;;;;5066631;28;19928;-67
2021/07/03 07:18:48;;;;;;;;;;;19.70;99.90;;;;;;5069804;28;19928;-67
2021/07/03 07:21:15;;;;;;;;;;;19.70;99.90;;;;;;5069899;28;19924;-67
2021/07/03 07:23:41;;;;;;;;;;;19.80;99.90;;;;;;5069603;28;19928;-67
2021/07/03 07:26:08;;;;;;;;;;;19.80;99.90;;;;;;5069223;28;19970;-67
2021/07/03 07:28:35;;;;;;;;;;;19.90;99.90;;;;;;5093554;27;20095;-67
2021/07/03 07:31:01;;;;;;;;;;;20.00;99.90;;;;;;5068168;28;20620;-67
2021/07/03 07:33:28;;;;;;;;;;;20.00;99.90;;;;;;5066899;28;20027;-67
2021/07/03 07:35:55;;;;;;;;;;;20.10;99.90;;;;;;5068750;28;19975;-67
2021/07/03 07:38:21;;;;;;;;;;;20.10;99.90;;;;;;5064693;28;19964;-67
2021/07/03 07:40:48;;;;;;;;;;;20.20;99.90;;;;;;5067446;28;19983;-67
2021/07/03 07:43:15;;;;;;;;;;;20.30;99.90;;;;;;5066372;28;19958;-67
2021/07/03 07:45:42;;;;;;;;;;;20.30;99.90;;;;;;5066447;28;19966;-67
2021/07/03 07:48:09;;;;;;;;;;;20.40;99.90;;;;;;5064580;28;19978;-67
2021/07/03 07:50:35;;;;;;;;;;;20.40;99.90;;;;;;5066025;28;20035;-68
2021/07/03 07:53:02;;;;;;;;;;;20.40;99.90;;;;;;5067566;28;20359;-68
2021/07/03 07:55:29;;;;;;;;;;;20.40;99.90;;;;;;5067875;28;20011;-67
2021/07/03 07:57:55;;;;;;;;;;;20.50;99.90;;;;;;5065842;28;19963;-67
2021/07/03 08:00:22;;;;;;;;;;;20.60;99.90;;;;;;5066312;28;19928;-67
2021/07/03 08:03:05;;;;;;;;;;;20.60;99.90;;;;;;5066897;28;20355;-67
2021/07/03 08:05:32;;;;;;;;;;;20.70;99.90;;;;;;5068117;28;21398;-67
2021/07/03 08:07:59;;;;;;;;;;;20.80;99.90;;;;;;5065537;28;20050;-67
2021/07/03 08:10:27;;;;;;;;;;;20.90;99.90;;;;;;5066382;28;19979;-67
2021/07/03 08:12:54;;;;;;;;;;;20.90;99.90;;;;;;5067170;28;19964;-67
2021/07/03 08:15:21;;;;;;;;;;;20.90;99.90;;;;;;5065829;28;19950;-67
2021/07/03 08:17:47;;;;;;;;;;;21.00;99.90;;;;;;5064869;28;20025;-67
2021/07/03 08:20:16;;;;;;;;;;;21.00;99.90;;;;;;5068932;28;19973;-68
2021/07/03 08:22:42;;;;;;;;;;;21.00;99.90;;;;;;5065982;28;20480;-67
2021/07/03 08:25:10;;;;;;;;;;;21.10;99.90;;;;;;5068196;28;19924;-67
2021/07/03 08:27:36;;;;;;;;;;;21.10;99.90;;;;;;5066666;28;19979;-68
2021/07/03 08:30:04;;;;;;;;;;;21.20;99.90;;;;;;5065924;28;19928;-67
2021/07/03 08:32:31;;;;;;;;;;;21.20;99.90;;;;;;5066461;28;19986;-67
2021/07/03 08:34:58;;;;;;;;;;;21.30;99.90;;;;;;5065725;28;19964;-68
2021/07/03 08:37:25;;;;;;;;;;;21.40;99.90;;;;;;5069502;28;20327;-67
2021/07/03 08:39:51;;;;;;;;;;;21.40;99.90;;;;;;5065693;28;20065;-67
2021/07/03 08:42:18;;;;;;;;;;;21.50;99.90;;;;;;5066332;28;20008;-67
2021/07/03 08:44:45;;;;;;;;;;;21.60;99.90;;;;;;5064873;28;19978;-68
2021/07/03 08:47:13;;;;;;;;;;;21.60;99.90;;;;;;5064024;28;19978;-68
2021/07/03 08:49:48;;;;;;;;;;;21.70;99.90;;;;;;5068353;28;19928;-68
2021/07/03 08:52:15;;;;;;;;;;;21.70;99.90;;;;;;5066420;28;20003;-68
2021/07/03 08:54:42;;;;;;;;;;;21.70;99.90;;;;;;5067905;28;20395;-67
2021/07/03 08:57:21;;;;;;;;;;;21.80;99.90;;;;;;5064399;28;20084;-68
2021/07/03 08:59:56;;;;;;;;;;;21.80;99.90;;;;;;5079681;28;19967;-68
2021/07/03 09:02:32;;;;;;;;;;;21.90;99.90;;;;;;5065223;28;19976;-68
2021/07/03 09:04:59;;;;;;;;;;;21.90;99.90;;;;;;5065207;28;19956;-67
2021/07/03 09:07:31;;;;;;;;;;;21.90;99.90;;;;;;5063367;28;19991;-68
2021/07/03 09:09:58;;;;;;;;;;;22.00;99.90;;;;;;5065664;28;19928;-68
2021/07/03 09:12:26;;;;;;;;;;;22.00;99.90;;;;;;5064173;28;19972;-68
2021/07/03 09:14:53;;;;;;;;;;;22.10;99.90;;;;;;5065778;28;20003;-68
2021/07/03 09:17:19;;;;;;;;;;;22.20;99.90;;;;;;5063646;28;20020;-68
2021/07/03 09:19:50;;;;;;;;;;;22.20;99.90;;;;;;5064164;28;19928;-68
2021/07/03 09:22:17;;;;;;;;;;;22.30;99.90;;;;;;5063653;28;19925;-67
2021/07/03 09:24:47;;;;;;;;;;;22.40;99.90;;;;;;5066638;28;19925;-67
2021/07/03 09:27:20;;;;;;;;;;;22.40;99.90;;;;;;5065281;28;19924;-68
2021/07/03 09:29:50;;;;;;;;;;;22.40;99.90;;;;;;5072189;28;20441;-68
2021/07/03 09:32:17;;;;;;;;;;;22.40;99.90;;;;;;5071507;28;20403;-68
2021/07/03 09:34:44;;;;;;;;;;;22.50;99.90;;;;;;5070645;28;19994;-67
2021/07/03 09:37:12;;;;;;;;;;;22.50;99.90;;;;;;5068179;28;19932;-68
2021/07/03 09:39:39;;;;;;;;;;;22.60;99.90;;;;;;5069867;28;19971;-68
2021/07/03 09:42:13;;;;;;;;;;;22.60;99.90;;;;;;5100853;27;20005;-68
2021/07/03 09:44:40;;;;;;;;;;;22.70;99.90;;;;;;5081016;28;19971;-68
2021/07/03 09:47:16;;;;;;;;;;;22.80;99.90;;;;;;5071174;28;19932;-68
2021/07/03 09:49:43;;;;;;;;;;;22.80;99.90;;;;;;5083749;28;19932;-68
2021/07/03 09:52:28;;;;;;;;;;;23.00;99.90;;;;;;5070443;28;20400;-68
2021/07/03 09:54:55;;;;;;;;;;;23.00;99.90;;;;;;5070647;28;20015;-69
2021/07/03 09:57:23;;;;;;;;;;;23.10;99.90;;;;;;5068886;28;20069;-68
2021/07/03 09:59:50;;;;;;;;;;;23.00;99.90;;;;;;5073354;28;20813;-68
2021/07/03 10:02:17;;;;;;;;;;;23.00;99.90;;;;;;5071048;28;19928;-68
2021/07/03 10:04:44;;;;;;;;;;;23.00;99.90;;;;;;5069722;28;19933;-68
2021/07/03 10:07:11;;;;;;;;;;;23.00;99.90;;;;;;5069921;28;20061;-68
2021/07/03 10:09:55;;;;;;;;;;;23.00;99.90;;;;;;5069472;28;19964;-68
2021/07/03 10:12:26;;;;;;;;;;;23.10;99.90;;;;;;5072957;28;19924;-68
2021/07/03 10:14:53;;;;;;;;;;;23.10;99.90;;;;;;5071328;28;20359;-68
2021/07/03 10:17:23;;;;;;;;;;;23.10;99.90;;;;;;5070526;28;19932;-68
2021/07/03 10:19:50;;;;;;;;;;;23.10;99.90;;;;;;5068970;28;19993;-68
2021/07/03 10:22:18;;;;;;;;;;;23.10;99.90;;;;;;5072776;28;19989;-68
2021/07/03 10:24:52;;;;;;;;;;;23.10;99.90;;;;;;5068334;28;19964;-67
2021/07/03 10:27:19;;;;;;;;;;;23.00;99.90;;;;;;5068403;28;19960;-67
2021/07/03 10:29:47;;;;;;;;;;;23.00;99.90;;;;;;5070201;28;20376;-68
2021/07/03 10:32:40;;;;;;;;;;;23.00;99.90;;;;;;5070573;28;19954;-68
2021/07/03 10:35:11;;;;;;;;;;;23.00;99.90;;;;;;5066685;28;19983;-68
2021/07/03 10:37:37;;;;;;;;;;;23.00;99.90;;;;;;5068249;28;19997;-68
2021/07/03 10:40:24;;;;;;;;;;;23.00;99.90;;;;;;5068442;28;20347;-68
2021/07/03 10:42:52;;;;;;;;;;;23.00;99.90;;;;;;5066879;28;19932;-68
2021/07/03 10:45:23;;;;;;;;;;;23.00;99.90;;;;;;5070215;28;19962;-68
2021/07/03 10:47:51;;;;;;;;;;;22.90;99.90;;;;;;5068164;28;20453;-68
2021/07/03 10:50:24;;;;;;;;;;;22.90;99.90;;;;;;5101340;27;19928;-67
2021/07/03 10:52:53;;;;;;;;;;;22.90;99.90;;;;;;5068046;28;20073;-68
2021/07/03 10:55:30;;;;;;;;;;;22.90;99.90;;;;;;5069567;28;19964;-68
2021/07/03 10:57:58;;;;;;;;;;;22.90;99.90;;;;;;5069124;28;19959;-68
2021/07/03 11:00:25;;;;;;;;;;;22.90;99.90;;;;;;5070203;28;19968;-68
2021/07/03 11:02:52;;;;;;;;;;;22.90;99.90;;;;;;5066437;28;20055;-68
2021/07/03 11:05:19;;;;;;;;;;;22.90;99.90;;;;;;5069527;28;20006;-68
2021/07/03 11:07:46;;;;;;;;;;;22.90;99.90;;;;;;5067211;28;20034;-68
2021/07/03 11:10:17;;;;;;;;;;;22.90;99.90;;;;;;5068504;28;19928;-68
2021/07/03 11:12:50;;;;;;;;;;;23.00;99.90;;;;;;5071394;28;20316;-68
2021/07/03 11:15:19;;;;;;;;;;;23.00;99.90;;;;;;5070379;28;20267;-68
2021/07/03 11:17:46;;;;;;;;;;;23.00;99.90;;;;;;5069056;28;19929;-68
2021/07/03 11:20:23;;;;;;;;;;;23.10;99.90;;;;;;5067973;28;19936;-68
2021/07/03 11:22:51;;;;;;;;;;;23.20;99.90;;;;;;5102433;27;20012;-69
2021/07/03 11:25:25;;;;;;;;;;;23.30;99.90;;;;;;5069524;28;20355;-68
2021/07/03 11:27:53;;;;;;;;;;;23.40;99.90;;;;;;5064743;28;20303;-68
2021/07/03 11:30:21;;;;;;;;;;;23.60;99.90;;;;;;5069836;28;19981;-68
2021/07/03 11:32:49;;;;;;;;;;;23.70;99.90;;;;;;5064880;28;20459;-68
2021/07/03 11:35:16;;;;;;;;;;;23.80;99.90;;;;;;5098131;27;20062;-68
2021/07/03 11:37:42;;;;;;;;;;;23.90;99.90;;;;;;5063361;28;20044;-68
2021/07/03 11:40:12;;;;;;;;;;;24.00;99.90;;;;;;5065012;28;20058;-68
2021/07/03 11:42:42;;;;;;;;;;;24.00;99.90;;;;;;5064274;28;20092;-68
2021/07/03 11:45:09;;;;;;;;;;;24.00;99.90;;;;;;5065494;28;20027;-68
2021/07/03 11:47:37;;;;;;;;;;;24.00;99.90;;;;;;5066339;28;20037;-68
2021/07/03 11:50:05;;;;;;;;;;;23.90;99.90;;;;;;5062605;28;19972;-68
2021/07/03 11:52:48;;;;;;;;;;;23.90;99.90;;;;;;5063341;28;19967;-68
2021/07/03 11:55:16;;;;;;;;;;;23.90;99.90;;;;;;5063742;28;19964;-68
2021/07/03 11:57:43;;;;;;;;;;;23.90;99.90;;;;;;5062948;28;20117;-68
2021/07/03 12:00:11;;;;;;;;;;;23.80;99.90;;;;;;5064519;28;21022;-67
2021/07/03 12:02:38;;;;;;;;;;;23.80;99.90;;;;;;5062861;28;20015;-67
2021/07/03 12:05:05;;;;;;;;;;;23.80;99.90;;;;;;5061456;28;20805;-68
2021/07/03 12:07:32;;;;;;;;;;;23.80;99.90;;;;;;5063378;28;20027;-68
2021/07/03 12:10:03;;;;;;;;;;;23.80;99.90;;;;;;5065911;28;19925;-68
2021/07/03 12:12:30;;;;;;;;;;;23.70;99.90;;;;;;5068754;28;20015;-68
2021/07/03 12:15:01;;;;;;;;;;;23.70;99.90;;;;;;5068818;28;19968;-68
2021/07/03 12:17:27;;;;;;;;;;;23.60;99.90;;;;;;5064997;28;19932;-68
2021/07/03 12:20:04;;;;;;;;;;;23.60;99.90;;;;;;5065811;28;20093;-68
2021/07/03 12:22:31;;;;;;;;;;;23.50;99.90;;;;;;5068108;28;19967;-68
2021/07/03 12:24:57;;;;;;;;;;;23.50;99.90;;;;;;5067897;28;19964;-68
2021/07/03 12:27:24;;;;;;;;;;;23.50;99.90;;;;;;5065052;28;20050;-68
2021/07/03 12:29:51;;;;;;;;;;;23.50;99.90;;;;;;5069036;28;19959;-68
2021/07/03 12:32:19;;;;;;;;;;;23.50;99.90;;;;;;5067620;28;19936;-68
2021/07/03 12:34:45;;;;;;;;;;;23.50;99.90;;;;;;5066642;28;19932;-68
2021/07/03 12:37:13;;;;;;;;;;;23.50;99.90;;;;;;5066264;28;20963;-68
2021/07/03 12:39:41;;;;;;;;;;;23.50;99.90;;;;;;5069673;28;19956;-68
2021/07/03 12:42:09;;;;;;;;;;;23.40;99.90;;;;;;5099874;27;19932;-68
2021/07/03 12:44:43;;;;;;;;;;;23.40;99.90;;;;;;5070781;28;19977;-68
2021/07/03 12:47:14;;;;;;;;;;;23.30;99.90;;;;;;5082730;28;20457;-68
2021/07/03 12:49:42;;;;;;;;;;;23.30;99.90;;;;;;5069603;28;20424;-68
2021/07/03 12:52:10;;;;;;;;;;;23.30;99.90;;;;;;5067397;28;20398;-68
2021/07/03 12:54:37;;;;;;;;;;;23.20;99.90;;;;;;5071410;28;19964;-68
2021/07/03 12:57:04;;;;;;;;;;;23.20;99.90;;;;;;5068846;28;20315;-68
2021/07/03 12:59:34;;;;;;;;;;;23.20;99.90;;;;;;5065507;28;19966;-68
2021/07/03 13:02:04;;;;;;;;;;;23.30;99.90;;;;;;5066426;28;19960;-68
2021/07/03 13:04:31;;;;;;;;;;;23.30;99.90;;;;;;5075896;28;19924;-68
2021/07/03 13:06:58;;;;;;;;;;;23.30;99.90;;;;;;5072344;28;19967;-68
2021/07/03 13:09:25;;;;;;;;;;;23.40;99.90;;;;;;5073808;28;19963;-68
2021/07/03 13:11:51;;;;;;;;;;;23.40;99.90;;;;;;5072358;28;19993;-68
2021/07/03 13:14:18;;;;;;;;;;;23.50;99.90;;;;;;5071824;28;19925;-68
2021/07/03 13:16:44;;;;;;;;;;;23.50;99.90;;;;;;5072536;28;20056;-68
2021/07/03 13:19:11;;;;;;;;;;;23.60;99.90;;;;;;5072589;28;20363;-68
2021/07/03 13:21:50;;;;;;;;;;;23.60;99.90;;;;;;5075146;28;20355;-68
2021/07/03 13:24:17;;;;;;;;;;;23.70;99.90;;;;;;5072904;28;19967;-68
2021/07/03 13:26:43;;;;;;;;;;;23.70;99.90;;;;;;5074483;28;19962;-68
2021/07/03 13:29:12;;;;;;;;;;;23.80;99.90;;;;;;5086502;28;20794;-68
2021/07/03 13:31:39;;;;;;;;;;;23.80;99.90;;;;;;5073233;28;19924;-68
2021/07/03 13:34:06;;;;;;;;;;;23.70;99.90;;;;;;5073141;28;20321;-68
2021/07/03 13:36:33;;;;;;;;;;;23.80;99.90;;;;;;5072033;28;19973;-68
2021/07/03 13:39:02;;;;;;;;;;;23.80;99.90;;;;;;5085274;28;19924;-68
2021/07/03 13:41:31;;;;;;;;;;;23.70;99.90;;;;;;5072499;28;19928;-68
2021/07/03 13:43:58;;;;;;;;;;;23.80;99.90;;;;;;5073268;28;19931;-68
2021/07/03 13:46:25;;;;;;;;;;;23.80;99.90;;;;;;5105469;27;20024;-68
2021/07/03 13:48:52;;;;;;;;;;;23.80;99.90;;;;;;5074500;28;20357;-68
2021/07/03 13:51:18;;;;;;;;;;;23.80;99.90;;;;;;5073690;28;19931;-68
2021/07/03 13:53:45;;;;;;;;;;;23.80;99.90;;;;;;5071519;28;19924;-68
2021/07/03 13:56:12;;;;;;;;;;;23.70;99.90;;;;;;5073607;28;19951;-68
2021/07/03 13:58:38;;;;;;;;;;;23.70;99.90;;;;;;5074114;28;20460;-68
2021/07/03 14:01:08;;;;;;;;;;;23.70;99.90;;;;;;5072970;28;20021;-67
2021/07/03 14:03:35;;;;;;;;;;;23.80;99.90;;;;;;5071021;28;19928;-68
2021/07/03 14:06:01;;;;;;;;;;;23.80;99.90;;;;;;5072266;28;19978;-68
2021/07/03 14:08:28;;;;;;;;;;;23.80;99.90;;;;;;5069879;28;20454;-68
2021/07/03 14:10:58;;;;;;;;;;;23.80;99.90;;;;;;5072999;28;20007;-68
2021/07/03 14:13:25;;;;;;;;;;;23.80;99.90;;;;;;5073758;28;20363;-68
2021/07/03 14:15:52;;;;;;;;;;;23.70;99.90;;;;;;5067901;28;20364;-68
2021/07/03 14:18:19;;;;;;;;;;;23.70;99.90;;;;;;5070027;28;20371;-68
2021/07/03 14:20:45;;;;;;;;;;;23.70;99.90;;;;;;5069534;28;20066;-68
2021/07/03 14:23:12;;;;;;;;;;;23.70;99.90;;;;;;5073212;28;19956;-68